Smyrna Airport

Airport
ICAO code: 
KMQY
Summary
ICAO Region: 
NAM
Territory: 
Location: 
Smyrna, Tennessee,
Coordinates: 
Aerial View: 
36° 0' 15.574" N, 86° 31' 33.222" W
Airport WX: 
Cumulonimbus
Metar
Observation
KMQY 021456Z 16005KT 10SM CLR 12/11 A3011 RMK AO2 SLP204 T01220106 51018
Station
Smyrna, Smyrna Airport
Date/Time
2021-12-02 14:56:00
Wind direction
160°
Wind speed
05 kts
Lowest cloud amount
n/a
Temperature
12.2°C
Dew point
10.6°C
Humidity
89%
Weather condition
n/a

Description

Smyrna Airport is a public and military (ANG) use airport located 4 km north of the central business district of Smyrna, a town in Rutherford County, Tennessee.

Climatology

Humid “subtropical” climate (Köppen climate classification Cfa) - characterized by hot, humid summers and cool winters. Significant amounts of precipitation occur in all seasons in most areas. Winter rainfall (and sometimes snowfall) is associated with large storms that the westerlies steer from west to east. Most summer rainfall occurs during thunderstorms and occasional tropical storms (hurricanes).

Runways

Designator Length Width Surface Rops
1/19 1690 30 ASP Yes/Yes
14/32 2449 46 ASP Yes/Yes
Airport map: 
Aerial View: 

SKYbrary Partners:

Safety knowledge contributed by: